sensor_id;sensor_type;location;lat;lon;timestamp;P1;durP1;ratioP1;P2;durP2;ratioP2
81367;SDS011;70823;50.056;14.398;2023-11-19T00:00:15;5.38;;;3.85;;
81367;SDS011;70823;50.056;14.398;2023-11-19T00:02:40;6.53;;;3.90;;
81367;SDS011;70823;50.056;14.398;2023-11-19T00:05:07;6.57;;;4.22;;
81367;SDS011;70823;50.056;14.398;2023-11-19T00:07:34;6.65;;;3.92;;
81367;SDS011;70823;50.056;14.398;2023-11-19T00:10:06;5.25;;;3.60;;
81367;SDS011;70823;50.056;14.398;2023-11-19T00:12:36;5.82;;;4.10;;
81367;SDS011;70823;50.056;14.398;2023-11-19T00:15:02;7.50;;;4.60;;
81367;SDS011;70823;50.056;14.398;2023-11-19T00:17:28;6.07;;;4.00;;
81367;SDS011;70823;50.056;14.398;2023-11-19T00:19:53;6.25;;;3.53;;
81367;SDS011;70823;50.056;14.398;2023-11-19T00:22:19;6.35;;;3.85;;
81367;SDS011;70823;50.056;14.398;2023-11-19T00:24:46;5.78;;;3.35;;
81367;SDS011;70823;50.056;14.398;2023-11-19T00:27:11;6.47;;;3.83;;
81367;SDS011;70823;50.056;14.398;2023-11-19T00:29:37;6.03;;;3.43;;
81367;SDS011;70823;50.056;14.398;2023-11-19T00:32:02;4.93;;;3.60;;
81367;SDS011;70823;50.056;14.398;2023-11-19T00:34:27;5.57;;;3.85;;
81367;SDS011;70823;50.056;14.398;2023-11-19T00:36:53;6.20;;;3.80;;
81367;SDS011;70823;50.056;14.398;2023-11-19T00:39:20;6.45;;;3.97;;
81367;SDS011;70823;50.056;14.398;2023-11-19T00:41:46;7.50;;;3.75;;
81367;SDS011;70823;50.056;14.398;2023-11-19T00:44:11;6.67;;;4.20;;
81367;SDS011;70823;50.056;14.398;2023-11-19T00:46:36;6.37;;;4.23;;
81367;SDS011;70823;50.056;14.398;2023-11-19T00:49:02;6.10;;;3.70;;
81367;SDS011;70823;50.056;14.398;2023-11-19T00:51:27;6.28;;;4.38;;
81367;SDS011;70823;50.056;14.398;2023-11-19T00:53:53;5.13;;;3.50;;
81367;SDS011;70823;50.056;14.398;2023-11-19T00:56:18;6.30;;;3.90;;
81367;SDS011;70823;50.056;14.398;2023-11-19T00:58:44;6.00;;;3.42;;
81367;SDS011;70823;50.056;14.398;2023-11-19T01:01:11;5.07;;;3.65;;
81367;SDS011;70823;50.056;14.398;2023-11-19T01:03:36;6.53;;;3.72;;
81367;SDS011;70823;50.056;14.398;2023-11-19T01:06:02;5.60;;;3.70;;
81367;SDS011;70823;50.056;14.398;2023-11-19T01:08:27;5.78;;;3.75;;
81367;SDS011;70823;50.056;14.398;2023-11-19T01:10:53;5.80;;;3.97;;
81367;SDS011;70823;50.056;14.398;2023-11-19T01:13:18;5.53;;;3.80;;
81367;SDS011;70823;50.056;14.398;2023-11-19T01:15:43;5.73;;;3.90;;
81367;SDS011;70823;50.056;14.398;2023-11-19T01:18:09;5.73;;;3.63;;
81367;SDS011;70823;50.056;14.398;2023-11-19T01:20:34;5.97;;;3.60;;
81367;SDS011;70823;50.056;14.398;2023-11-19T01:22:59;7.95;;;3.67;;
81367;SDS011;70823;50.056;14.398;2023-11-19T01:25:25;5.18;;;3.50;;
81367;SDS011;70823;50.056;14.398;2023-11-19T01:27:50;6.87;;;3.77;;
81367;SDS011;70823;50.056;14.398;2023-11-19T01:30:15;5.40;;;3.70;;
81367;SDS011;70823;50.056;14.398;2023-11-19T01:32:41;5.80;;;3.60;;
81367;SDS011;70823;50.056;14.398;2023-11-19T01:35:06;4.97;;;3.50;;
81367;SDS011;70823;50.056;14.398;2023-11-19T01:37:33;5.35;;;3.90;;
81367;SDS011;70823;50.056;14.398;2023-11-19T01:39:59;5.60;;;3.67;;
81367;SDS011;70823;50.056;14.398;2023-11-19T01:42:25;5.50;;;3.80;;
81367;SDS011;70823;50.056;14.398;2023-11-19T01:45:00;5.38;;;3.47;;
81367;SDS011;70823;50.056;14.398;2023-11-19T01:47:26;5.72;;;3.75;;
81367;SDS011;70823;50.056;14.398;2023-11-19T01:49:52;6.00;;;3.65;;
81367;SDS011;70823;50.056;14.398;2023-11-19T01:52:18;5.40;;;3.63;;
81367;SDS011;70823;50.056;14.398;2023-11-19T01:54:43;5.97;;;3.88;;
81367;SDS011;70823;50.056;14.398;2023-11-19T01:57:10;4.65;;;3.17;;
81367;SDS011;70823;50.056;14.398;2023-11-19T01:59:35;4.88;;;3.45;;
81367;SDS011;70823;50.056;14.398;2023-11-19T02:02:01;5.32;;;3.35;;
81367;SDS011;70823;50.056;14.398;2023-11-19T02:04:26;5.22;;;3.30;;
81367;SDS011;70823;50.056;14.398;2023-11-19T02:06:52;5.85;;;3.88;;
81367;SDS011;70823;50.056;14.398;2023-11-19T02:09:19;5.72;;;3.38;;
81367;SDS011;70823;50.056;14.398;2023-11-19T02:11:45;4.80;;;3.20;;
81367;SDS011;70823;50.056;14.398;2023-11-19T02:14:14;5.05;;;3.42;;
81367;SDS011;70823;50.056;14.398;2023-11-19T02:16:39;4.95;;;3.05;;
81367;SDS011;70823;50.056;14.398;2023-11-19T02:19:05;4.73;;;3.13;;
81367;SDS011;70823;50.056;14.398;2023-11-19T02:21:31;5.00;;;3.22;;
81367;SDS011;70823;50.056;14.398;2023-11-19T02:23:56;4.50;;;3.10;;
81367;SDS011;70823;50.056;14.398;2023-11-19T02:26:29;4.93;;;3.50;;
81367;SDS011;70823;50.056;14.398;2023-11-19T02:28:58;5.05;;;3.13;;
81367;SDS011;70823;50.056;14.398;2023-11-19T02:31:23;4.97;;;3.60;;
81367;SDS011;70823;50.056;14.398;2023-11-19T02:33:49;5.20;;;3.60;;
81367;SDS011;70823;50.056;14.398;2023-11-19T02:36:15;5.35;;;3.40;;
81367;SDS011;70823;50.056;14.398;2023-11-19T02:38:40;4.30;;;3.15;;
81367;SDS011;70823;50.056;14.398;2023-11-19T02:41:09;5.07;;;3.17;;
81367;SDS011;70823;50.056;14.398;2023-11-19T02:43:34;4.53;;;2.95;;
81367;SDS011;70823;50.056;14.398;2023-11-19T02:46:05;5.65;;;4.10;;
81367;SDS011;70823;50.056;14.398;2023-11-19T02:48:34;3.83;;;3.10;;
81367;SDS011;70823;50.056;14.398;2023-11-19T02:51:00;5.80;;;3.15;;
81367;SDS011;70823;50.056;14.398;2023-11-19T02:53:26;4.53;;;3.25;;
81367;SDS011;70823;50.056;14.398;2023-11-19T02:55:53;4.85;;;3.30;;
81367;SDS011;70823;50.056;14.398;2023-11-19T02:58:25;5.38;;;3.17;;
81367;SDS011;70823;50.056;14.398;2023-11-19T03:00:53;5.05;;;3.40;;
81367;SDS011;70823;50.056;14.398;2023-11-19T03:03:34;4.35;;;3.08;;
81367;SDS011;70823;50.056;14.398;2023-11-19T03:06:06;5.32;;;3.13;;
81367;SDS011;70823;50.056;14.398;2023-11-19T03:08:34;5.40;;;3.50;;
81367;SDS011;70823;50.056;14.398;2023-11-19T03:11:00;5.55;;;3.10;;
81367;SDS011;70823;50.056;14.398;2023-11-19T03:13:25;4.95;;;3.40;;
81367;SDS011;70823;50.056;14.398;2023-11-19T03:15:51;4.70;;;3.00;;
81367;SDS011;70823;50.056;14.398;2023-11-19T03:18:18;4.85;;;3.28;;
81367;SDS011;70823;50.056;14.398;2023-11-19T03:20:44;5.00;;;3.73;;
81367;SDS011;70823;50.056;14.398;2023-11-19T03:23:11;4.50;;;3.00;;
81367;SDS011;70823;50.056;14.398;2023-11-19T03:25:36;4.70;;;3.10;;
81367;SDS011;70823;50.056;14.398;2023-11-19T03:28:02;4.53;;;3.05;;
81367;SDS011;70823;50.056;14.398;2023-11-19T03:30:28;4.32;;;2.97;;
81367;SDS011;70823;50.056;14.398;2023-11-19T03:32:54;4.93;;;3.07;;
81367;SDS011;70823;50.056;14.398;2023-11-19T03:35:22;4.00;;;2.92;;
81367;SDS011;70823;50.056;14.398;2023-11-19T03:37:48;3.75;;;2.60;;
81367;SDS011;70823;50.056;14.398;2023-11-19T03:40:14;5.22;;;3.13;;
81367;SDS011;70823;50.056;14.398;2023-11-19T03:42:39;5.17;;;3.20;;
81367;SDS011;70823;50.056;14.398;2023-11-19T03:45:08;4.50;;;2.90;;
81367;SDS011;70823;50.056;14.398;2023-11-19T03:47:36;5.35;;;3.20;;
81367;SDS011;70823;50.056;14.398;2023-11-19T03:50:02;4.85;;;3.35;;
81367;SDS011;70823;50.056;14.398;2023-11-19T03:52:28;4.43;;;3.00;;
81367;SDS011;70823;50.056;14.398;2023-11-19T03:54:57;5.15;;;3.53;;
81367;SDS011;70823;50.056;14.398;2023-11-19T03:57:23;4.43;;;3.30;;
81367;SDS011;70823;50.056;14.398;2023-11-19T03:59:48;4.30;;;3.10;;
81367;SDS011;70823;50.056;14.398;2023-11-19T04:02:14;4.67;;;3.20;;
81367;SDS011;70823;50.056;14.398;2023-11-19T04:04:40;4.97;;;3.20;;
81367;SDS011;70823;50.056;14.398;2023-11-19T04:07:05;4.47;;;3.20;;
81367;SDS011;70823;50.056;14.398;2023-11-19T04:09:31;4.93;;;3.15;;
81367;SDS011;70823;50.056;14.398;2023-11-19T04:11:58;4.25;;;3.03;;
81367;SDS011;70823;50.056;14.398;2023-11-19T04:14:23;4.38;;;3.10;;
81367;SDS011;70823;50.056;14.398;2023-11-19T04:16:48;4.27;;;2.80;;
81367;SDS011;70823;50.056;14.398;2023-11-19T04:19:14;4.75;;;3.08;;
81367;SDS011;70823;50.056;14.398;2023-11-19T04:21:40;5.40;;;3.30;;
81367;SDS011;70823;50.056;14.398;2023-11-19T04:24:06;5.80;;;3.97;;
81367;SDS011;70823;50.056;14.398;2023-11-19T04:26:33;4.00;;;3.10;;
81367;SDS011;70823;50.056;14.398;2023-11-19T04:28:59;4.53;;;3.03;;
81367;SDS011;70823;50.056;14.398;2023-11-19T04:31:28;4.40;;;3.00;;
81367;SDS011;70823;50.056;14.398;2023-11-19T04:33:54;4.28;;;3.00;;
81367;SDS011;70823;50.056;14.398;2023-11-19T04:36:20;4.28;;;3.25;;
81367;SDS011;70823;50.056;14.398;2023-11-19T04:38:49;4.57;;;2.80;;
81367;SDS011;70823;50.056;14.398;2023-11-19T04:41:14;3.97;;;2.80;;
81367;SDS011;70823;50.056;14.398;2023-11-19T04:43:39;4.30;;;2.90;;
81367;SDS011;70823;50.056;14.398;2023-11-19T04:46:05;4.03;;;2.90;;
81367;SDS011;70823;50.056;14.398;2023-11-19T04:48:30;4.18;;;2.67;;
81367;SDS011;70823;50.056;14.398;2023-11-19T04:50:55;4.25;;;2.90;;
81367;SDS011;70823;50.056;14.398;2023-11-19T04:53:21;4.37;;;2.63;;
81367;SDS011;70823;50.056;14.398;2023-11-19T04:55:46;3.95;;;2.72;;
81367;SDS011;70823;50.056;14.398;2023-11-19T04:58:12;4.18;;;2.85;;
81367;SDS011;70823;50.056;14.398;2023-11-19T05:00:37;4.70;;;2.97;;
81367;SDS011;70823;50.056;14.398;2023-11-19T05:03:03;5.65;;;3.00;;
81367;SDS011;70823;50.056;14.398;2023-11-19T05:05:28;4.35;;;2.90;;
81367;SDS011;70823;50.056;14.398;2023-11-19T05:07:54;4.20;;;2.70;;
81367;SDS011;70823;50.056;14.398;2023-11-19T05:10:20;3.75;;;2.50;;
81367;SDS011;70823;50.056;14.398;2023-11-19T05:12:45;4.03;;;2.83;;
81367;SDS011;70823;50.056;14.398;2023-11-19T05:15:10;3.63;;;2.40;;
81367;SDS011;70823;50.056;14.398;2023-11-19T05:17:36;4.32;;;2.78;;
81367;SDS011;70823;50.056;14.398;2023-11-19T05:20:02;4.13;;;2.90;;
81367;SDS011;70823;50.056;14.398;2023-11-19T05:22:27;3.67;;;2.53;;
81367;SDS011;70823;50.056;14.398;2023-11-19T05:24:53;4.07;;;2.90;;
81367;SDS011;70823;50.056;14.398;2023-11-19T05:27:18;4.40;;;2.57;;
81367;SDS011;70823;50.056;14.398;2023-11-19T05:29:43;4.30;;;3.00;;
81367;SDS011;70823;50.056;14.398;2023-11-19T05:32:09;3.72;;;2.65;;
81367;SDS011;70823;50.056;14.398;2023-11-19T05:34:34;3.70;;;2.70;;
81367;SDS011;70823;50.056;14.398;2023-11-19T05:37:00;4.57;;;2.77;;
81367;SDS011;70823;50.056;14.398;2023-11-19T05:39:25;3.47;;;2.43;;
81367;SDS011;70823;50.056;14.398;2023-11-19T05:41:50;3.50;;;2.40;;
81367;SDS011;70823;50.056;14.398;2023-11-19T05:44:16;4.05;;;2.78;;
81367;SDS011;70823;50.056;14.398;2023-11-19T05:46:42;3.42;;;2.38;;
81367;SDS011;70823;50.056;14.398;2023-11-19T05:49:08;4.50;;;2.92;;
81367;SDS011;70823;50.056;14.398;2023-11-19T05:51:40;4.40;;;2.78;;
81367;SDS011;70823;50.056;14.398;2023-11-19T05:54:06;3.88;;;2.50;;
81367;SDS011;70823;50.056;14.398;2023-11-19T05:56:32;3.47;;;2.40;;
81367;SDS011;70823;50.056;14.398;2023-11-19T05:58:58;3.60;;;2.40;;
81367;SDS011;70823;50.056;14.398;2023-11-19T06:01:25;4.20;;;2.70;;
81367;SDS011;70823;50.056;14.398;2023-11-19T06:03:51;3.80;;;2.50;;
81367;SDS011;70823;50.056;14.398;2023-11-19T06:06:16;3.70;;;2.47;;
81367;SDS011;70823;50.056;14.398;2023-11-19T06:08:42;3.60;;;2.40;;
81367;SDS011;70823;50.056;14.398;2023-11-19T06:11:07;3.33;;;2.60;;
81367;SDS011;70823;50.056;14.398;2023-11-19T06:13:32;4.27;;;2.50;;
81367;SDS011;70823;50.056;14.398;2023-11-19T06:15:58;3.93;;;2.57;;
81367;SDS011;70823;50.056;14.398;2023-11-19T06:18:23;3.73;;;2.60;;
81367;SDS011;70823;50.056;14.398;2023-11-19T06:20:48;4.03;;;2.47;;
81367;SDS011;70823;50.056;14.398;2023-11-19T06:23:14;3.45;;;2.42;;
81367;SDS011;70823;50.056;14.398;2023-11-19T06:25:40;3.60;;;2.40;;
81367;SDS011;70823;50.056;14.398;2023-11-19T06:28:05;3.50;;;2.63;;
81367;SDS011;70823;50.056;14.398;2023-11-19T06:30:31;3.97;;;2.50;;
81367;SDS011;70823;50.056;14.398;2023-11-19T06:32:57;3.63;;;2.50;;
81367;SDS011;70823;50.056;14.398;2023-11-19T06:35:23;3.95;;;2.58;;
81367;SDS011;70823;50.056;14.398;2023-11-19T06:37:48;3.37;;;2.30;;
81367;SDS011;70823;50.056;14.398;2023-11-19T06:40:13;4.03;;;2.40;;
81367;SDS011;70823;50.056;14.398;2023-11-19T06:42:40;3.83;;;2.80;;
81367;SDS011;70823;50.056;14.398;2023-11-19T06:45:06;3.53;;;2.15;;
81367;SDS011;70823;50.056;14.398;2023-11-19T06:47:32;3.70;;;2.40;;
81367;SDS011;70823;50.056;14.398;2023-11-19T06:49:57;3.67;;;2.30;;
81367;SDS011;70823;50.056;14.398;2023-11-19T06:52:23;3.13;;;2.20;;
81367;SDS011;70823;50.056;14.398;2023-11-19T06:54:49;3.40;;;2.30;;
81367;SDS011;70823;50.056;14.398;2023-11-19T06:57:14;3.40;;;2.33;;
81367;SDS011;70823;50.056;14.398;2023-11-19T06:59:39;3.53;;;2.37;;
81367;SDS011;70823;50.056;14.398;2023-11-19T07:02:05;3.10;;;2.10;;
81367;SDS011;70823;50.056;14.398;2023-11-19T07:04:31;4.20;;;2.50;;
81367;SDS011;70823;50.056;14.398;2023-11-19T07:06:58;3.17;;;2.05;;
81367;SDS011;70823;50.056;14.398;2023-11-19T07:09:23;4.03;;;2.30;;
81367;SDS011;70823;50.056;14.398;2023-11-19T07:11:48;2.87;;;2.00;;
81367;SDS011;70823;50.056;14.398;2023-11-19T07:14:16;3.60;;;2.20;;
81367;SDS011;70823;50.056;14.398;2023-11-19T07:16:42;3.50;;;2.20;;
81367;SDS011;70823;50.056;14.398;2023-11-19T07:19:08;3.80;;;2.35;;
81367;SDS011;70823;50.056;14.398;2023-11-19T07:21:34;3.60;;;2.40;;
81367;SDS011;70823;50.056;14.398;2023-11-19T07:23:59;3.10;;;1.90;;
81367;SDS011;70823;50.056;14.398;2023-11-19T07:26:25;3.35;;;2.13;;
81367;SDS011;70823;50.056;14.398;2023-11-19T07:28:50;3.47;;;2.33;;
81367;SDS011;70823;50.056;14.398;2023-11-19T07:31:16;3.63;;;2.22;;
81367;SDS011;70823;50.056;14.398;2023-11-19T07:33:44;4.28;;;2.30;;
81367;SDS011;70823;50.056;14.398;2023-11-19T07:36:09;2.87;;;2.00;;
81367;SDS011;70823;50.056;14.398;2023-11-19T07:38:35;3.20;;;2.28;;
81367;SDS011;70823;50.056;14.398;2023-11-19T07:41:01;3.65;;;2.42;;
81367;SDS011;70823;50.056;14.398;2023-11-19T07:43:26;3.80;;;2.30;;
81367;SDS011;70823;50.056;14.398;2023-11-19T07:45:51;5.27;;;2.40;;
81367;SDS011;70823;50.056;14.398;2023-11-19T07:48:17;3.47;;;2.20;;
81367;SDS011;70823;50.056;14.398;2023-11-19T07:50:47;2.80;;;2.00;;
81367;SDS011;70823;50.056;14.398;2023-11-19T07:53:15;3.30;;;2.17;;
81367;SDS011;70823;50.056;14.398;2023-11-19T07:55:40;3.35;;;2.20;;
81367;SDS011;70823;50.056;14.398;2023-11-19T07:58:06;3.83;;;2.40;;
81367;SDS011;70823;50.056;14.398;2023-11-19T08:00:31;3.90;;;2.00;;
81367;SDS011;70823;50.056;14.398;2023-11-19T08:02:56;2.80;;;1.93;;
81367;SDS011;70823;50.056;14.398;2023-11-19T08:05:21;3.33;;;2.07;;
81367;SDS011;70823;50.056;14.398;2023-11-19T08:07:49;3.00;;;1.95;;
81367;SDS011;70823;50.056;14.398;2023-11-19T08:10:14;3.27;;;2.37;;
81367;SDS011;70823;50.056;14.398;2023-11-19T08:12:40;3.42;;;2.40;;
81367;SDS011;70823;50.056;14.398;2023-11-19T08:15:06;3.00;;;1.92;;
81367;SDS011;70823;50.056;14.398;2023-11-19T08:17:32;3.53;;;2.20;;
81367;SDS011;70823;50.056;14.398;2023-11-19T08:19:57;3.92;;;2.17;;
81367;SDS011;70823;50.056;14.398;2023-11-19T08:22:22;3.37;;;1.97;;
81367;SDS011;70823;50.056;14.398;2023-11-19T08:24:48;3.23;;;2.17;;
81367;SDS011;70823;50.056;14.398;2023-11-19T08:27:13;3.05;;;2.38;;
81367;SDS011;70823;50.056;14.398;2023-11-19T08:29:39;2.95;;;1.90;;
81367;SDS011;70823;50.056;14.398;2023-11-19T08:32:04;3.20;;;2.20;;
81367;SDS011;70823;50.056;14.398;2023-11-19T08:34:31;3.60;;;2.20;;
81367;SDS011;70823;50.056;14.398;2023-11-19T08:36:56;3.20;;;1.90;;
81367;SDS011;70823;50.056;14.398;2023-11-19T08:39:22;2.67;;;1.90;;
81367;SDS011;70823;50.056;14.398;2023-11-19T08:41:47;5.03;;;2.30;;
81367;SDS011;70823;50.056;14.398;2023-11-19T08:44:13;2.90;;;2.00;;
81367;SDS011;70823;50.056;14.398;2023-11-19T08:46:38;2.63;;;1.70;;
81367;SDS011;70823;50.056;14.398;2023-11-19T08:49:04;3.70;;;2.05;;
81367;SDS011;70823;50.056;14.398;2023-11-19T08:51:30;3.20;;;2.05;;
81367;SDS011;70823;50.056;14.398;2023-11-19T08:53:56;3.17;;;2.33;;
81367;SDS011;70823;50.056;14.398;2023-11-19T08:56:22;3.08;;;2.10;;
81367;SDS011;70823;50.056;14.398;2023-11-19T08:58:47;2.57;;;1.80;;
81367;SDS011;70823;50.056;14.398;2023-11-19T09:01:13;4.33;;;2.20;;
81367;SDS011;70823;50.056;14.398;2023-11-19T09:03:38;4.68;;;2.40;;
81367;SDS011;70823;50.056;14.398;2023-11-19T09:06:03;4.00;;;2.20;;
81367;SDS011;70823;50.056;14.398;2023-11-19T09:08:29;3.55;;;2.13;;
81367;SDS011;70823;50.056;14.398;2023-11-19T09:10:54;3.55;;;2.10;;
81367;SDS011;70823;50.056;14.398;2023-11-19T09:13:19;4.27;;;2.50;;
81367;SDS011;70823;50.056;14.398;2023-11-19T09:15:45;3.63;;;1.93;;
81367;SDS011;70823;50.056;14.398;2023-11-19T09:18:10;5.18;;;2.22;;
81367;SDS011;70823;50.056;14.398;2023-11-19T09:20:36;3.10;;;2.05;;
81367;SDS011;70823;50.056;14.398;2023-11-19T09:23:03;4.85;;;2.20;;
81367;SDS011;70823;50.056;14.398;2023-11-19T09:25:30;5.32;;;2.10;;
81367;SDS011;70823;50.056;14.398;2023-11-19T09:27:55;3.63;;;1.97;;
81367;SDS011;70823;50.056;14.398;2023-11-19T09:30:21;4.20;;;2.50;;
81367;SDS011;70823;50.056;14.398;2023-11-19T09:32:46;3.30;;;2.20;;
81367;SDS011;70823;50.056;14.398;2023-11-19T09:35:11;3.13;;;2.07;;
81367;SDS011;70823;50.056;14.398;2023-11-19T09:37:38;3.03;;;2.00;;
81367;SDS011;70823;50.056;14.398;2023-11-19T09:40:04;3.40;;;2.05;;
81367;SDS011;70823;50.056;14.398;2023-11-19T09:42:31;3.03;;;1.90;;
81367;SDS011;70823;50.056;14.398;2023-11-19T09:45:04;3.00;;;2.10;;
81367;SDS011;70823;50.056;14.398;2023-11-19T09:47:37;3.38;;;1.80;;
81367;SDS011;70823;50.056;14.398;2023-11-19T09:50:03;3.10;;;2.00;;
81367;SDS011;70823;50.056;14.398;2023-11-19T09:52:30;3.97;;;2.22;;
81367;SDS011;70823;50.056;14.398;2023-11-19T09:54:55;3.33;;;2.22;;
81367;SDS011;70823;50.056;14.398;2023-11-19T09:57:20;3.45;;;2.67;;
81367;SDS011;70823;50.056;14.398;2023-11-19T09:59:46;3.77;;;2.77;;
81367;SDS011;70823;50.056;14.398;2023-11-19T10:02:12;3.47;;;2.42;;
81367;SDS011;70823;50.056;14.398;2023-11-19T10:04:37;3.63;;;2.85;;
81367;SDS011;70823;50.056;14.398;2023-11-19T10:07:03;4.47;;;2.72;;
81367;SDS011;70823;50.056;14.398;2023-11-19T10:09:29;5.40;;;2.83;;
81367;SDS011;70823;50.056;14.398;2023-11-19T10:11:54;5.20;;;2.58;;
81367;SDS011;70823;50.056;14.398;2023-11-19T10:14:20;5.57;;;2.90;;
81367;SDS011;70823;50.056;14.398;2023-11-19T10:16:48;5.57;;;3.45;;
81367;SDS011;70823;50.056;14.398;2023-11-19T10:19:18;4.40;;;2.50;;
81367;SDS011;70823;50.056;14.398;2023-11-19T10:21:45;7.32;;;3.47;;
81367;SDS011;70823;50.056;14.398;2023-11-19T10:24:11;9.48;;;3.13;;
81367;SDS011;70823;50.056;14.398;2023-11-19T10:26:36;5.90;;;2.60;;
81367;SDS011;70823;50.056;14.398;2023-11-19T10:29:02;5.55;;;2.60;;
81367;SDS011;70823;50.056;14.398;2023-11-19T10:31:27;3.80;;;2.30;;
81367;SDS011;70823;50.056;14.398;2023-11-19T10:33:53;3.40;;;2.00;;
81367;SDS011;70823;50.056;14.398;2023-11-19T10:36:18;3.33;;;2.00;;
81367;SDS011;70823;50.056;14.398;2023-11-19T10:38:55;5.28;;;1.92;;
81367;SDS011;70823;50.056;14.398;2023-11-19T10:41:30;3.05;;;1.80;;
81367;SDS011;70823;50.056;14.398;2023-11-19T10:43:56;3.80;;;1.70;;
81367;SDS011;70823;50.056;14.398;2023-11-19T10:46:22;3.28;;;1.80;;
81367;SDS011;70823;50.056;14.398;2023-11-19T10:48:48;3.92;;;1.70;;
81367;SDS011;70823;50.056;14.398;2023-11-19T10:51:14;3.33;;;1.50;;
81367;SDS011;70823;50.056;14.398;2023-11-19T10:53:46;3.33;;;1.77;;
81367;SDS011;70823;50.056;14.398;2023-11-19T10:56:13;2.75;;;1.75;;
81367;SDS011;70823;50.056;14.398;2023-11-19T10:58:44;3.10;;;1.58;;
81367;SDS011;70823;50.056;14.398;2023-11-19T11:01:14;4.63;;;1.50;;
81367;SDS011;70823;50.056;14.398;2023-11-19T11:03:42;2.25;;;1.50;;
81367;SDS011;70823;50.056;14.398;2023-11-19T11:06:08;3.35;;;1.50;;
81367;SDS011;70823;50.056;14.398;2023-11-19T11:08:34;3.67;;;1.63;;
81367;SDS011;70823;50.056;14.398;2023-11-19T11:11:02;3.03;;;1.38;;
81367;SDS011;70823;50.056;14.398;2023-11-19T11:13:29;2.28;;;1.50;;
81367;SDS011;70823;50.056;14.398;2023-11-19T11:15:56;3.58;;;1.52;;
81367;SDS011;70823;50.056;14.398;2023-11-19T11:18:23;2.85;;;1.50;;
81367;SDS011;70823;50.056;14.398;2023-11-19T11:20:50;2.67;;;1.40;;
81367;SDS011;70823;50.056;14.398;2023-11-19T11:26:23;1.83;;;1.30;;
81367;SDS011;70823;50.056;14.398;2023-11-19T11:37:21;1.90;;;1.10;;
81367;SDS011;70823;50.056;14.398;2023-11-19T11:40:01;1.80;;;1.15;;
81367;SDS011;70823;50.056;14.398;2023-11-19T11:42:30;2.50;;;1.13;;
81367;SDS011;70823;50.056;14.398;2023-11-19T11:44:59;2.42;;;1.17;;
81367;SDS011;70823;50.056;14.398;2023-11-19T11:50:10;2.33;;;1.25;;
81367;SDS011;70823;50.056;14.398;2023-11-19T11:55:24;2.45;;;1.40;;
81367;SDS011;70823;50.056;14.398;2023-11-19T11:57:49;3.42;;;1.40;;
81367;SDS011;70823;50.056;14.398;2023-11-19T12:00:21;2.00;;;1.20;;
81367;SDS011;70823;50.056;14.398;2023-11-19T12:02:48;2.40;;;1.50;;
81367;SDS011;70823;50.056;14.398;2023-11-19T12:05:14;2.65;;;1.50;;
81367;SDS011;70823;50.056;14.398;2023-11-19T12:07:39;2.67;;;1.40;;
81367;SDS011;70823;50.056;14.398;2023-11-19T12:10:08;4.95;;;1.60;;
81367;SDS011;70823;50.056;14.398;2023-11-19T12:12:37;2.63;;;1.20;;
81367;SDS011;70823;50.056;14.398;2023-11-19T12:15:05;2.78;;;1.60;;
81367;SDS011;70823;50.056;14.398;2023-11-19T12:17:41;2.20;;;1.20;;
81367;SDS011;70823;50.056;14.398;2023-11-19T12:20:09;2.30;;;1.33;;
81367;SDS011;70823;50.056;14.398;2023-11-19T12:22:39;2.60;;;1.20;;
81367;SDS011;70823;50.056;14.398;2023-11-19T12:25:06;2.80;;;1.52;;
81367;SDS011;70823;50.056;14.398;2023-11-19T12:27:36;2.08;;;1.25;;
81367;SDS011;70823;50.056;14.398;2023-11-19T12:30:06;2.05;;;1.30;;
81367;SDS011;70823;50.056;14.398;2023-11-19T12:32:41;2.80;;;1.48;;
81367;SDS011;70823;50.056;14.398;2023-11-19T12:35:09;1.77;;;1.10;;
81367;SDS011;70823;50.056;14.398;2023-11-19T12:40:10;2.20;;;1.40;;
81367;SDS011;70823;50.056;14.398;2023-11-19T12:42:38;2.15;;;1.17;;
81367;SDS011;70823;50.056;14.398;2023-11-19T12:45:03;3.28;;;1.30;;
81367;SDS011;70823;50.056;14.398;2023-11-19T12:47:29;3.95;;;1.40;;
81367;SDS011;70823;50.056;14.398;2023-11-19T12:49:55;2.50;;;1.20;;
81367;SDS011;70823;50.056;14.398;2023-11-19T12:52:23;1.80;;;1.20;;
81367;SDS011;70823;50.056;14.398;2023-11-19T12:54:49;1.33;;;1.05;;
81367;SDS011;70823;50.056;14.398;2023-11-19T12:57:14;3.03;;;1.33;;
81367;SDS011;70823;50.056;14.398;2023-11-19T12:59:40;2.05;;;1.10;;
81367;SDS011;70823;50.056;14.398;2023-11-19T13:02:05;2.03;;;1.20;;
81367;SDS011;70823;50.056;14.398;2023-11-19T13:04:31;1.80;;;1.20;;
81367;SDS011;70823;50.056;14.398;2023-11-19T13:06:57;1.70;;;1.17;;
81367;SDS011;70823;50.056;14.398;2023-11-19T13:09:23;2.50;;;1.65;;
81367;SDS011;70823;50.056;14.398;2023-11-19T13:11:49;2.75;;;1.48;;
81367;SDS011;70823;50.056;14.398;2023-11-19T13:14:15;2.10;;;1.30;;
81367;SDS011;70823;50.056;14.398;2023-11-19T13:16:40;2.70;;;1.30;;
81367;SDS011;70823;50.056;14.398;2023-11-19T13:19:07;4.20;;;1.50;;
81367;SDS011;70823;50.056;14.398;2023-11-19T13:21:33;2.00;;;1.33;;
81367;SDS011;70823;50.056;14.398;2023-11-19T13:23:59;2.13;;;1.27;;
81367;SDS011;70823;50.056;14.398;2023-11-19T13:26:24;2.88;;;1.27;;
81367;SDS011;70823;50.056;14.398;2023-11-19T13:28:49;2.03;;;1.20;;
81367;SDS011;70823;50.056;14.398;2023-11-19T13:31:15;2.03;;;1.30;;
81367;SDS011;70823;50.056;14.398;2023-11-19T13:33:40;2.78;;;1.35;;
81367;SDS011;70823;50.056;14.398;2023-11-19T13:36:06;4.78;;;1.38;;
81367;SDS011;70823;50.056;14.398;2023-11-19T13:38:33;2.40;;;1.25;;
81367;SDS011;70823;50.056;14.398;2023-11-19T13:41:00;2.13;;;1.15;;
81367;SDS011;70823;50.056;14.398;2023-11-19T13:43:26;1.75;;;1.15;;
81367;SDS011;70823;50.056;14.398;2023-11-19T13:45:53;1.70;;;1.15;;
81367;SDS011;70823;50.056;14.398;2023-11-19T13:48:18;3.33;;;1.35;;
81367;SDS011;70823;50.056;14.398;2023-11-19T13:50:43;2.67;;;1.40;;
81367;SDS011;70823;50.056;14.398;2023-11-19T13:53:09;2.30;;;1.30;;
81367;SDS011;70823;50.056;14.398;2023-11-19T13:55:34;3.40;;;1.20;;
81367;SDS011;70823;50.056;14.398;2023-11-19T13:58:00;3.10;;;1.30;;
81367;SDS011;70823;50.056;14.398;2023-11-19T14:00:25;3.27;;;1.30;;
81367;SDS011;70823;50.056;14.398;2023-11-19T14:02:51;2.37;;;1.23;;
81367;SDS011;70823;50.056;14.398;2023-11-19T14:05:17;2.70;;;1.20;;
81367;SDS011;70823;50.056;14.398;2023-11-19T14:07:42;4.15;;;1.38;;
81367;SDS011;70823;50.056;14.398;2023-11-19T14:10:08;3.28;;;1.30;;
81367;SDS011;70823;50.056;14.398;2023-11-19T14:12:35;3.63;;;1.20;;
81367;SDS011;70823;50.056;14.398;2023-11-19T14:15:02;3.10;;;1.20;;
81367;SDS011;70823;50.056;14.398;2023-11-19T14:17:30;2.60;;;1.30;;
81367;SDS011;70823;50.056;14.398;2023-11-19T14:19:55;7.27;;;1.40;;
81367;SDS011;70823;50.056;14.398;2023-11-19T14:22:21;4.30;;;1.20;;
81367;SDS011;70823;50.056;14.398;2023-11-19T14:24:46;2.38;;;1.17;;
81367;SDS011;70823;50.056;14.398;2023-11-19T14:27:11;5.50;;;2.13;;
81367;SDS011;70823;50.056;14.398;2023-11-19T14:29:37;5.23;;;1.30;;
81367;SDS011;70823;50.056;14.398;2023-11-19T14:32:02;8.63;;;1.60;;
81367;SDS011;70823;50.056;14.398;2023-11-19T14:34:31;2.38;;;1.30;;
81367;SDS011;70823;50.056;14.398;2023-11-19T14:36:57;2.67;;;1.33;;
81367;SDS011;70823;50.056;14.398;2023-11-19T14:39:23;3.03;;;1.30;;
81367;SDS011;70823;50.056;14.398;2023-11-19T14:41:48;3.87;;;1.50;;
81367;SDS011;70823;50.056;14.398;2023-11-19T14:44:14;5.88;;;1.30;;
81367;SDS011;70823;50.056;14.398;2023-11-19T14:46:40;7.10;;;2.55;;